Eagle Lake, New York
Current Conditions -  °F | °C
As of 3:35 AM on Saturday 29 Nov 2014 (Local Time) from K6B0 Reporting Station
Clear Clear  
Wind Chill:   Ceiling: Unl
Heat Index: 13°   Visibility: 10mi
Dew Point: 11°   Wind: 5mph
Humidity: 92%   Direction: 120°ESE
Pressure: 30.22"   Gusts: NA
Location:  43.8519°N, 73.5047°W
Report Text: K6B0 290835Z AUTO 12004KT 10SM CLR M11/M12 A3022 RMK AO2 T11081119
Loading
Personal Weather Stations






























Interactive Weather Map New forecast layout! Learn more

10-Day Weather Forecast

Advertisements
Track Severe Weather on mobile